Portada
METAR-TAF:

METAR-TAF

Aeroports :

Atirau, Kazakhstan

latitud: 47-07-19N, longitud: 051-49-17E, altitud: -22 m

Observació

L'informe es va fer fa 35 minuts, a les 20:00 UTC
Vent 8 kt del Nord
Temperatura 25°C
Humitat 44%
Pressió 1010 hPa
Visibilitat 10 km o més
sense núvols per sota de 1500 mi sense presència de cumulonimbus.

METAR: UATG 192000Z 35004MPS CAVOK 25/12 Q1010 R32/CLRD70 NOSIG RMK QFE759/1012

Hora: 02:35 (20:35 UTC)

Pronòstic

L'informe es va fer fa 3 hores i 35 minuts, a les 17:00 UTC
Pronòstic vàlid del 19 a les 18 UTC al 20 a les 18 UTC
Vent 14 kt del Nord
Visibilitat 10 km o més
sense núvols per sota de 1500 mi sense presència de cumulonimbus.
Evolucionant progressivament
l' 20 a les 08 UTC al 20 a les 10 UTC
Vent 21 kt del Oest/Nord-Oest

TAF: UATG 191700Z 1918/2018 35007MPS CAVOK TX36/2011Z TN23/2001Z BECMG 2008/2010 29011MPS

Observacions i pronòstics meteorològics de més de 4000 aeroports (METAR i TAF).

Les estacions disponibles són els punts grocs i vermells al mapa.

Posi el ratolí al punt desitjat per veure el nom de l'estació.

Feu clic per veure les observacions i els pronòstics meteorològics.

Per canviar el mapa: feu clic els botons verds amb una creu de color negre per apropar; al botó verd amb un guió per allunyar la imatge; o en les fletxes verdes per a mapes adjacents.


METAR-TAF: